Time;durP1;ratioP1;P1;durP2;ratioP2;P2;SDS_P1;SDS_P2;PMS_P1;PMS_P2;Temp;Humidity;BMP_temperature;BMP_pressure;BME280_temperature;BME280_humidity;BME280_pressure;Samples;Min_cycle;Max_cycle;Signal;HPM_P1;HPM_P2
2021/01/10 00:00:58;;;;;;;23.50;14.98;;;;;;;-2.48;77.47;100465.19;1796360;79;21208;-73
2021/01/10 00:03:26;;;;;;;20.90;13.38;;;;;;;-2.45;77.45;100465.10;1798886;78;21081;-67
2021/01/10 00:05:57;;;;;;;26.15;17.02;;;;;;;-2.42;77.45;100469.34;1797570;79;21119;-69
2021/01/10 00:08:25;;;;;;;23.15;15.05;;;;;;;-2.42;77.46;100471.48;1792843;79;22075;-66
2021/01/10 00:10:53;;;;;;;25.77;17.80;;;;;;;-2.39;77.45;100479.63;1796576;79;21116;-71
2021/01/10 00:13:21;;;;;;;26.42;18.45;;;;;;;-2.37;77.46;100476.11;1798946;79;21066;-73
2021/01/10 00:15:49;;;;;;;22.58;15.45;;;;;;;-2.37;77.43;100476.11;1777102;79;21081;-71
2021/01/10 00:18:17;;;;;;;22.70;15.78;;;;;;;-2.35;77.42;100476.92;1768600;79;21049;-70
2021/01/10 00:20:45;;;;;;;25.10;16.62;;;;;;;-2.32;77.38;100483.33;1782295;79;22090;-71
2021/01/10 00:23:12;;;;;;;26.20;18.70;;;;;;;-2.32;77.35;100482.45;1782308;80;22404;-70
2021/01/10 00:25:42;;;;;;;23.12;16.02;;;;;;;-2.32;77.32;100479.45;1775114;80;21136;-71
2021/01/10 00:28:09;;;;;;;27.13;16.90;;;;;;;-2.31;77.31;100488.06;1766402;80;21073;-70
2021/01/10 00:30:37;;;;;;;22.27;15.83;;;;;;;-2.31;77.31;100481.14;1776649;80;21066;-70
2021/01/10 00:33:05;;;;;;;23.62;15.70;;;;;;;-2.30;77.33;100475.53;1770159;80;22070;-71
2021/01/10 00:35:35;;;;;;;22.85;15.08;;;;;;;-2.28;77.30;100476.78;1770734;80;21185;-70
2021/01/10 00:38:04;;;;;;;23.70;16.87;;;;;;;-2.28;77.31;100479.36;1787353;80;21168;-70
2021/01/10 00:40:31;;;;;;;25.27;16.48;;;;;;;-2.28;77.31;100483.25;1756280;80;21151;-71
2021/01/10 00:42:59;;;;;;;19.92;14.05;;;;;;;-2.29;77.32;100477.67;1786342;80;21518;-71
2021/01/10 00:45:28;;;;;;;22.60;15.78;;;;;;;-2.30;77.34;100474.23;1786660;80;22066;-71
2021/01/10 00:47:56;;;;;;;21.27;14.87;;;;;;;-2.29;77.32;100477.67;1729909;80;21089;-70
2021/01/10 00:50:27;;;;;;;24.23;16.50;;;;;;;-2.30;77.39;100487.17;1756643;80;21064;-71
2021/01/10 00:52:55;;;;;;;24.67;16.57;;;;;;;-2.28;77.39;100481.95;1744855;80;21181;-71
2021/01/10 00:55:23;;;;;;;25.55;17.55;;;;;;;-2.29;77.39;100475.08;1729388;81;21148;-71
2021/01/10 00:57:51;;;;;;;24.82;17.35;;;;;;;-2.29;77.40;100480.25;1756103;81;22929;-72
2021/01/10 01:00:21;;;;;;;25.70;18.32;;;;;;;-2.32;77.41;100474.28;1753955;80;21092;-71
2021/01/10 01:02:51;;;;;;;24.80;16.95;;;;;;;-2.31;77.41;100475.97;1772949;80;21065;-73
2021/01/10 01:05:21;;;;;;;23.45;16.40;;;;;;;-2.31;77.39;100481.59;1762552;80;21076;-71
2021/01/10 01:07:49;;;;;;;23.10;15.70;;;;;;;-2.32;77.43;100483.33;1756332;80;21068;-71
2021/01/10 01:10:19;;;;;;;20.23;13.90;;;;;;;-2.34;77.50;100479.91;1756343;80;22071;-72
2021/01/10 01:12:46;;;;;;;23.27;16.15;;;;;;;-2.34;77.56;100479.06;1769784;80;21065;-71
2021/01/10 01:15:15;;;;;;;27.07;18.25;;;;;;;-2.35;77.57;100482.53;1785049;80;21140;-71
2021/01/10 01:17:43;;;;;;;24.65;17.07;;;;;;;-2.35;77.64;100485.97;1787064;80;21125;-72
2021/01/10 01:20:12;;;;;;;31.62;20.68;;;;;;;-2.35;77.66;100486.42;1752354;80;21144;-73
2021/01/10 01:22:41;;;;;;;24.23;16.70;;;;;;;-2.36;77.71;100488.16;1757561;80;21836;-73
2021/01/10 01:25:10;;;;;;;24.82;16.25;;;;;;;-2.36;77.71;100489.89;1767094;80;21080;-70
2021/01/10 01:27:37;;;;;;;25.27;16.70;;;;;;;-2.36;77.69;100489.89;1772106;80;21470;-70
2021/01/10 01:30:07;;;;;;;23.30;15.53;;;;;;;-2.37;77.70;100489.49;1768074;80;21187;-70
2021/01/10 01:32:35;;;;;;;28.45;18.73;;;;;;;-2.39;77.75;100491.27;1793192;80;21082;-71
2021/01/10 01:35:05;;;;;;;22.13;14.70;;;;;;;-2.39;77.74;100495.16;1790887;79;22122;-70
2021/01/10 01:37:34;;;;;;;28.40;19.62;;;;;;;-2.40;77.75;100495.59;1785677;79;21544;-71
2021/01/10 01:40:06;;;;;;;23.07;14.98;;;;;;;-2.40;77.80;100496.05;1766774;80;21416;-70
2021/01/10 01:42:34;;;;;;;26.62;17.75;;;;;;;-2.40;77.80;100493.45;1780580;80;21105;-71
2021/01/10 01:45:05;;;;;;;28.98;20.08;;;;;;;-2.39;77.84;100501.17;1756540;81;21358;-71
2021/01/10 01:47:33;;;;;;;24.90;15.80;;;;;;;-2.40;77.88;100494.75;1747741;81;22092;-70
2021/01/10 01:50:07;;;;;;;27.35;16.65;;;;;;;-2.42;77.98;100490.88;1763102;81;21183;-71
2021/01/10 01:52:35;;;;;;;;;;;;;;;-2.43;78.03;100487.89;1743874;82;21117;-71
2021/01/10 01:55:06;;;;;;;26.93;16.95;;;;;;;-2.42;78.04;100489.59;1741318;81;20261;-73
2021/01/10 01:57:34;;;;;;;27.70;19.12;;;;;;;-2.42;78.09;100492.17;1763537;81;21535;-72
2021/01/10 02:00:05;;;;;;;24.85;17.15;;;;;;;-2.40;78.23;100487.84;1757302;81;22057;-72
2021/01/10 02:02:34;;;;;;;27.95;19.50;;;;;;;-2.38;78.24;100486.06;1740866;81;20981;-70
2021/01/10 02:05:08;;;;;;;22.60;15.78;;;;;;;-2.36;78.17;100493.33;1742676;81;21544;-70
2021/01/10 02:07:51;;;;;;;30.35;20.55;;;;;;;-2.35;78.21;100489.00;1769632;81;21161;-70
2021/01/10 02:10:14;;;;;;;24.40;16.73;;;;;;;-2.33;78.21;100493.69;1755939;81;21132;-71
2021/01/10 02:12:49;;;;;;;28.42;18.80;;;;;;;-2.34;78.20;100492.84;1741252;82;21966;-70
2021/01/10 02:15:21;;;;;;;28.30;19.17;;;;;;;-2.36;78.22;100495.07;1761071;81;21500;-71
2021/01/10 02:17:51;;;;;;;24.00;16.50;;;;;;;-2.35;78.25;100494.18;1768999;81;21069;-71
2021/01/10 02:20:29;;;;;;;25.45;17.35;;;;;;;-2.36;78.23;100495.91;1742029;81;21069;-71
2021/01/10 02:23:19;;;;;;;30.43;18.98;;;;;;;-2.36;78.25;100498.50;1752028;80;21053;-70
2021/01/10 02:25:48;;;;;;;26.05;18.82;;;;;;;-2.37;78.32;100495.96;1753139;80;24210;-72
2021/01/10 02:28:22;;;;;;;23.40;15.50;;;;;;;-2.36;78.32;100501.53;1761303;80;21219;-72
2021/01/10 02:30:51;;;;;;;22.75;15.13;;;;;;;-2.37;78.28;100495.52;1758447;79;21045;-72
2021/01/10 02:33:48;;;;;;;24.37;15.35;;;;;;;-2.36;78.31;100499.80;1764265;80;21061;-72
2021/01/10 02:36:59;;;;;;;24.18;16.62;;;;;;;-2.35;78.30;100493.73;1746811;81;21041;-70
2021/01/10 02:39:50;;;;;;;24.00;15.72;;;;;;;-2.32;78.30;100493.68;1744220;81;22090;-71
2021/01/10 02:42:25;;;;;;;27.73;18.05;;;;;;;-2.32;78.28;100491.09;1769491;81;22516;-71
2021/01/10 02:45:01;;;;;;;28.23;20.10;;;;;;;-2.34;78.25;100491.99;1790923;79;21111;-71
2021/01/10 02:47:29;;;;;;;26.70;19.27;;;;;;;-2.35;78.25;100489.85;1763248;80;21132;-72
2021/01/10 02:49:57;;;;;;;31.00;21.02;;;;;;;-2.36;78.22;100492.48;1740557;81;21058;-71
2021/01/10 02:52:24;;;;;;;29.35;20.92;;;;;;;-2.39;78.22;100492.13;1740520;82;21584;-70
2021/01/10 02:54:52;;;;;;;25.17;15.68;;;;;;;-2.39;78.22;100493.41;1742840;81;21196;-70
2021/01/10 02:57:32;;;;;;;26.23;18.02;;;;;;;-2.40;78.24;100495.59;1765999;79;21054;-71
2021/01/10 03:00:00;;;;;;;31.37;20.62;;;;;;;-2.41;78.24;100490.02;1751181;80;21496;-71
2021/01/10 03:02:27;;;;;;;28.55;19.50;;;;;;;-2.42;78.24;100490.88;1760611;80;21048;-70
2021/01/10 03:04:55;;;;;;;22.90;15.72;;;;;;;-2.42;78.25;100490.88;1757304;80;22135;-70
2021/01/10 03:07:23;;;;;;;25.82;16.48;;;;;;;-2.44;78.25;100490.08;1741810;81;21591;-70
2021/01/10 03:09:51;;;;;;;28.80;18.45;;;;;;;-2.44;78.24;100487.48;1740648;81;21323;-70
2021/01/10 03:12:25;;;;;;;32.80;21.82;;;;;;;-2.45;78.24;100481.06;1717601;82;21678;-71
2021/01/10 03:15:00;;;;;;;30.52;19.00;;;;;;;-2.45;78.28;100490.12;1752155;81;21105;-73
2021/01/10 03:17:46;;;;;;;26.07;17.50;;;;;;;-2.44;78.28;100496.54;1766226;80;22061;-70
2021/01/10 03:20:19;;;;;;;27.58;18.70;;;;;;;-2.45;78.27;100497.87;1738551;81;21151;-70
2021/01/10 03:22:49;;;;;;;29.35;20.75;;;;;;;-2.47;78.27;100494.04;1767039;80;21077;-72
2021/01/10 03:25:19;;;;;;;28.23;18.67;;;;;;;-2.48;78.25;100501.39;1758304;80;21070;-71
2021/01/10 03:27:49;;;;;;;26.90;18.48;;;;;;;-2.48;78.25;100499.25;1754981;80;21065;-71
2021/01/10 03:30:18;;;;;;;31.70;20.70;;;;;;;-2.50;78.25;100503.17;1745643;80;22059;-70
2021/01/10 03:32:49;;;;;;;31.95;21.80;;;;;;;-2.51;78.24;100501.48;1784908;80;21069;-71
2021/01/10 03:35:18;;;;;;;26.82;17.17;;;;;;;-2.55;78.31;100501.57;1773692;80;21553;-71
2021/01/10 03:37:47;;;;;;;31.35;20.65;;;;;;;-2.56;78.32;100508.48;1772042;79;21417;-71
2021/01/10 03:40:14;;;;;;;26.75;17.70;;;;;;;-2.57;78.35;100517.12;1776401;80;21128;-71
2021/01/10 03:42:42;;;;;;;31.07;21.40;;;;;;;-2.60;78.33;100518.05;1779811;79;22078;-72
2021/01/10 03:45:12;;;;;;;27.93;19.52;;;;;;;-2.61;78.39;100518.06;1781272;80;21085;-71
2021/01/10 03:47:42;;;;;;;18.70;13.32;;;;;;;-2.62;78.40;100513.34;1780909;79;21113;-73
2021/01/10 03:50:12;;;;;;;29.60;20.75;;;;;;;-2.63;78.41;100515.97;1754500;80;21048;-72
2021/01/10 03:52:40;;;;;;;31.33;22.15;;;;;;;-2.63;78.44;100525.02;1739627;80;21068;-72
2021/01/10 03:55:09;;;;;;;22.02;15.45;;;;;;;-2.64;78.45;100518.14;1773479;80;22093;-72
2021/01/10 03:57:38;;;;;;;24.32;16.15;;;;;;;-2.64;78.49;100520.73;1757522;80;21089;-71
2021/01/10 04:00:09;;;;;;;30.75;20.48;;;;;;;-2.63;78.53;100525.86;1767844;80;21156;-71
2021/01/10 04:02:38;;;;;;;33.90;22.52;;;;;;;-2.63;78.57;100519.84;1741877;80;21069;-71
2021/01/10 04:05:08;;;;;;;35.98;23.92;;;;;;;-2.62;78.58;100519.80;1787040;80;21062;-71
2021/01/10 04:07:35;;;;;;;32.85;21.95;;;;;;;-2.61;78.62;100521.94;1763886;80;22950;-71
2021/01/10 04:10:05;;;;;;;36.08;24.20;;;;;;;-2.59;78.66;100521.49;1756524;80;21135;-70
2021/01/10 04:12:33;;;;;;;28.25;18.95;;;;;;;-2.59;78.71;100527.95;1751651;80;21160;-70
2021/01/10 04:15:01;;;;;;;24.10;16.75;;;;;;;-2.57;78.70;100523.59;1759184;80;21490;-70
2021/01/10 04:17:29;;;;;;;26.80;18.62;;;;;;;-2.58;78.70;100525.77;1781383;79;21061;-72
2021/01/10 04:19:58;;;;;;;29.72;20.77;;;;;;;-2.58;78.71;100528.80;1777415;79;21886;-70
2021/01/10 04:22:26;;;;;;;31.10;21.15;;;;;;;-2.58;78.70;100526.22;1783662;80;21128;-70
2021/01/10 04:24:54;;;;;;;34.20;23.15;;;;;;;-2.57;78.69;100530.05;1761633;80;21131;-73
2021/01/10 04:27:22;;;;;;;29.67;20.57;;;;;;;-2.57;78.67;100528.77;1777012;80;21615;-71
2021/01/10 04:29:52;;;;;;;33.25;23.42;;;;;;;-2.57;78.70;100527.91;1766249;80;21065;-71
2021/01/10 04:32:20;;;;;;;29.98;20.35;;;;;;;-2.60;78.64;100529.69;1783883;78;21894;-71
2021/01/10 04:34:49;;;;;;;31.48;22.30;;;;;;;-2.61;78.67;100532.28;1790005;80;21049;-70
2021/01/10 04:37:17;;;;;;;27.93;19.62;;;;;;;-2.62;78.67;100535.31;1790807;80;21061;-70
2021/01/10 04:39:44;;;;;;;22.80;15.15;;;;;;;-2.63;78.71;100544.41;1761425;80;21155;-70
2021/01/10 04:42:14;;;;;;;31.15;21.40;;;;;;;-2.63;78.74;100535.36;1750886;80;21147;-71
2021/01/10 04:44:42;;;;;;;29.85;20.35;;;;;;;-2.62;78.81;100537.90;1790914;80;21895;-71
2021/01/10 04:47:10;;;;;;;29.40;19.87;;;;;;;-2.59;78.83;100542.17;1740297;81;21092;-71
2021/01/10 04:49:39;;;;;;;27.85;18.90;;;;;;;-2.58;78.90;100545.61;1759694;80;21053;-73
2021/01/10 04:52:07;;;;;;;27.02;18.17;;;;;;;-2.59;78.96;100543.47;1784515;80;21072;-72
2021/01/10 04:54:41;;;;;;;37.30;23.92;;;;;;;-2.56;79.07;100547.71;1788108;80;21155;-71
2021/01/10 04:57:14;;;;;;;33.60;22.87;;;;;;;-2.53;79.12;100541.16;1756748;81;21966;-71
2021/01/10 04:59:41;;;;;;;19.82;13.48;;;;;;;-2.50;79.14;100544.55;1759660;81;21146;-73
2021/01/10 05:02:10;;;;;;;28.77;18.90;;;;;;;-2.46;79.16;100544.88;1745546;81;21619;-72
2021/01/10 05:04:39;;;;;;;35.90;23.83;;;;;;;-2.43;79.20;100549.12;1745358;81;21069;-71
2021/01/10 05:07:07;;;;;;;28.40;19.02;;;;;;;-2.42;79.20;100551.66;1706875;81;21058;-71
2021/01/10 05:09:36;;;;;;;25.57;17.07;;;;;;;-2.40;79.22;100557.67;1777925;80;21888;-70
2021/01/10 05:12:05;;;;;;;34.30;22.17;;;;;;;-2.38;79.23;100557.63;1735103;81;21112;-70
2021/01/10 05:14:33;;;;;;;32.33;21.70;;;;;;;-2.36;79.22;100566.20;1769014;79;21374;-70
2021/01/10 05:17:03;;;;;;;28.47;19.17;;;;;;;-2.35;79.24;100570.05;1790874;80;21136;-71
2021/01/10 05:19:31;;;;;;;30.43;21.55;;;;;;;-2.34;79.23;100570.45;1790670;79;21104;-70
2021/01/10 05:22:05;;;;;;;32.40;21.65;;;;;;;-2.31;79.25;100572.98;1734150;80;22973;-71
2021/01/10 05:24:33;;;;;;;29.60;20.72;;;;;;;-2.28;79.27;100577.67;1767365;80;21526;-72
2021/01/10 05:27:02;;;;;;;32.88;21.68;;;;;;;-2.27;79.23;100581.52;1777960;80;21054;-72
2021/01/10 05:29:30;;;;;;;26.77;17.85;;;;;;;-2.25;79.29;100577.59;1777911;80;21062;-72
2021/01/10 05:32:01;;;;;;;27.73;19.07;;;;;;;-2.24;79.30;100581.88;1755280;80;21072;-72
2021/01/10 05:34:32;;;;;;;35.38;23.55;;;;;;;-2.22;79.30;100588.73;1772454;80;21984;-71
2021/01/10 05:37:15;;;;;;;31.82;20.55;;;;;;;-2.20;79.29;100586.95;1750235;80;21058;-71
2021/01/10 05:39:46;;;;;;;31.20;19.90;;;;;;;-2.18;79.28;100592.94;1748809;80;21611;-70
2021/01/10 05:42:15;;;;;;;30.12;19.17;;;;;;;-2.15;79.29;100595.89;1748695;80;21143;-72
2021/01/10 05:44:49;;;;;;;32.63;20.88;;;;;;;-2.14;79.33;100595.00;1767896;80;21156;-72
2021/01/10 05:47:18;;;;;;;37.78;24.65;;;;;;;-2.13;79.30;100596.70;1785132;79;22809;-71
2021/01/10 05:49:53;;;;;;;28.38;18.77;;;;;;;-2.10;79.31;100598.79;1784092;80;21547;-70
2021/01/10 05:52:22;;;;;;;36.60;23.57;;;;;;;-2.07;79.31;100602.59;1749089;80;21057;-72
2021/01/10 05:54:55;;;;;;;28.98;19.00;;;;;;;-2.04;79.32;100602.95;1763534;81;21045;-72
2021/01/10 05:57:30;;;;;;;33.75;23.42;;;;;;;-2.00;79.29;100605.89;1742480;82;21121;-71
2021/01/10 05:59:57;;;;;;;29.32;19.48;;;;;;;-2.00;79.26;100599.42;1756615;80;22071;-71
2021/01/10 06:02:35;;;;;;;28.55;18.37;;;;;;;-1.99;79.23;100606.29;1756659;80;21112;-72
2021/01/10 06:05:20;;;;;;;30.43;20.12;;;;;;;-1.98;79.22;100603.25;1730891;81;21156;-73
2021/01/10 06:07:49;;;;;;;28.90;18.67;;;;;;;-1.98;79.20;100606.70;1775157;80;21148;-72
2021/01/10 06:10:30;;;;;;;26.95;18.02;;;;;;;-2.01;79.17;100613.25;1757761;80;21072;-72
2021/01/10 06:13:03;;;;;;;32.35;22.40;;;;;;;-2.03;79.17;100612.41;1760386;80;22057;-72
2021/01/10 06:15:32;;;;;;;32.88;20.77;;;;;;;-2.04;79.18;100614.59;1755742;81;21061;-71
2021/01/10 06:18:02;;;;;;;30.52;20.40;;;;;;;-2.04;79.18;100618.48;1748738;80;21475;-71
2021/01/10 06:20:34;;;;;;;35.17;23.75;;;;;;;-2.05;79.20;100624.55;1766732;80;21073;-71
2021/01/10 06:23:04;;;;;;;33.55;22.45;;;;;;;-2.05;79.20;100620.66;1763602;80;21135;-71
2021/01/10 06:25:35;;;;;;;30.92;19.98;;;;;;;-2.03;79.21;100622.34;1762116;80;22181;-71
2021/01/10 06:28:13;;;;;;;23.47;16.23;;;;;;;-2.02;79.21;100627.93;1768321;80;21148;-71
2021/01/10 06:30:56;;;;;;;30.77;20.85;;;;;;;-2.02;79.22;100631.81;1791934;79;21076;-71
2021/01/10 06:33:31;;;;;;;35.75;23.15;;;;;;;-2.01;79.20;100636.55;1780842;79;21526;-71
2021/01/10 06:36:05;;;;;;;35.28;22.65;;;;;;;-2.00;79.21;100638.69;1766818;81;21496;-72
2021/01/10 06:38:36;;;;;;;30.92;20.95;;;;;;;-1.99;79.20;100640.39;1768980;79;22027;-71
2021/01/10 06:41:21;;;;;;;30.60;21.75;;;;;;;-1.97;79.25;100644.63;1752059;81;21125;-71
2021/01/10 06:43:59;;;;;;;35.85;24.72;;;;;;;-1.95;79.23;100646.73;1792362;79;21081;-71
2021/01/10 06:46:26;;;;;;;34.10;22.45;;;;;;;-1.91;79.26;100652.70;1774117;79;21145;-71
2021/01/10 06:48:54;;;;;;;27.00;18.10;;;;;;;-1.88;79.24;100652.62;1796417;79;21624;-71
2021/01/10 06:51:28;;;;;;;28.87;19.00;;;;;;;-1.84;79.19;100654.23;1772532;79;21889;-71
2021/01/10 06:53:57;;;;;;;27.85;18.90;;;;;;;-1.82;79.10;100653.78;1766558;80;21182;-71
2021/01/10 06:56:26;;;;;;;30.27;20.92;;;;;;;-1.81;79.05;100651.59;1768483;79;21129;-70
2021/01/10 06:59:17;;;;;;;24.63;17.67;;;;;;;-1.75;79.08;100654.02;1777543;78;21103;-71
2021/01/10 07:01:51;;;;;;;27.25;18.80;;;;;;;-1.70;79.01;100646.16;1771863;79;21544;-71
2021/01/10 07:04:24;;;;;;;32.23;22.25;;;;;;;-1.67;78.94;100641.73;1795109;79;22141;-70
2021/01/10 07:06:53;;;;;;;25.27;17.42;;;;;;;-1.63;78.85;100651.59;1798886;78;21081;-72
2021/01/10 07:09:21;;;;;;;23.22;15.58;;;;;;;-1.60;78.75;100651.51;1797825;78;21052;-70
2021/01/10 07:11:51;;;;;;;31.97;21.87;;;;;;;-1.58;78.64;100653.16;1798918;79;21181;-72
2021/01/10 07:14:24;;;;;;;25.00;16.55;;;;;;;-1.56;78.53;100653.12;1798951;79;21050;-72
2021/01/10 07:17:10;;;;;;;28.40;19.80;;;;;;;-1.55;78.47;100652.23;1799146;78;22051;-70
2021/01/10 07:19:41;;;;;;;23.67;15.75;;;;;;;-1.53;78.31;100659.09;1778468;79;21516;-71
2021/01/10 07:22:27;;;;;;;32.20;21.48;;;;;;;-1.50;78.01;100663.34;1795148;78;21069;-71
2021/01/10 07:24:55;;;;;;;23.98;15.95;;;;;;;-1.48;77.82;100662.84;1789932;80;21105;-73
2021/01/10 07:27:28;;;;;;;27.48;18.20;;;;;;;-1.41;77.62;100670.03;1766628;80;21145;-72
2021/01/10 07:29:56;;;;;;;19.57;13.20;;;;;;;-1.35;77.52;100664.25;1777989;80;22065;-70
2021/01/10 07:32:36;;;;;;;26.80;18.65;;;;;;;-1.26;77.46;100667.87;1788781;79;21173;-71
2021/01/10 07:35:06;;;;;;;24.67;16.17;;;;;;;-1.17;77.32;100665.04;1778463;80;21061;-70
2021/01/10 07:37:34;;;;;;;27.75;17.98;;;;;;;-1.05;76.94;100665.18;1763995;80;21432;-71
2021/01/10 07:40:08;;;;;;;28.57;16.77;;;;;;;-0.96;76.54;100664.94;1759327;80;21180;-70
2021/01/10 07:42:40;;;;;;;23.62;17.07;;;;;;;-0.89;76.18;100666.89;1759819;80;22137;-73
2021/01/10 07:45:22;;;;;;;24.82;16.57;;;;;;;-0.83;75.69;100678.84;1769845;80;21492;-72
2021/01/10 07:47:51;;;;;;;23.18;16.15;;;;;;;-0.79;75.65;100672.22;1751405;80;21180;-71
2021/01/10 07:50:24;;;;;;;23.42;15.68;;;;;;;-0.73;75.59;100674.66;1785884;79;21498;-71
2021/01/10 07:52:59;;;;;;;24.80;18.17;;;;;;;-0.71;75.12;100687.13;1752015;80;21063;-71
2021/01/10 07:55:29;;;;;;;23.85;15.58;;;;;;;-0.71;74.81;100683.23;1755882;80;22077;-69
2021/01/10 07:58:04;;;;;;;21.00;13.95;;;;;;;-0.68;74.78;100683.14;1777032;80;21061;-70
2021/01/10 08:00:34;;;;;;;25.25;17.07;;;;;;;-0.68;74.74;100681.84;1771975;80;21183;-69
2021/01/10 08:03:07;;;;;;;25.23;17.45;;;;;;;-0.67;74.65;100684.87;1768621;80;21594;-70
2021/01/10 08:05:38;;;;;;;23.07;16.00;;;;;;;-0.64;74.64;100685.22;1764030;80;21098;-70
2021/01/10 08:08:17;;;;;;;24.60;16.93;;;;;;;-0.63;74.62;100683.88;1725179;80;21954;-70
2021/01/10 08:10:55;;;;;;;23.02;17.02;;;;;;;-0.62;74.71;100684.27;1747014;80;21128;-69
2021/01/10 08:13:39;;;;;;;26.50;17.27;;;;;;;-0.59;74.81;100685.47;1761517;80;21164;-68
2021/01/10 08:16:16;;;;;;;25.57;18.75;;;;;;;-0.56;74.69;100681.12;1772393;79;21670;-69
2021/01/10 08:18:45;;;;;;;27.15;17.55;;;;;;;-0.55;74.75;100688.84;1704529;82;21136;-72
2021/01/10 08:21:16;;;;;;;28.32;19.07;;;;;;;-0.54;74.78;100686.66;1750523;82;21595;-66
2021/01/10 08:23:49;;;;;;;25.20;16.30;;;;;;;-0.53;74.77;100681.87;1786521;78;21124;-68
2021/01/10 08:26:18;;;;;;;27.02;18.65;;;;;;;-0.52;74.93;100682.27;1760856;80;21114;-68
2021/01/10 08:28:53;;;;;;;41.08;23.25;;;;;;;-0.49;74.94;100677.42;1771197;79;21593;-65
2021/01/10 08:31:23;;;;;;;25.57;17.35;;;;;;;-0.48;75.00;100670.05;1767319;80;20914;-67
2021/01/10 08:34:04;;;;;;;28.07;19.10;;;;;;;-0.45;75.03;100679.91;1742081;81;22095;-70
2021/01/10 08:36:33;;;;;;;24.82;16.67;;;;;;;-0.41;74.92;100672.87;1740031;80;21077;-70
2021/01/10 08:39:10;;;;;;;33.65;21.93;;;;;;;-0.42;74.81;100670.72;1765467;80;21069;-69
2021/01/10 08:41:44;;;;;;;44.08;28.00;;;;;;;-0.40;74.90;100669.38;1748883;80;21061;-69
2021/01/10 08:44:18;;;;;;;25.88;18.35;;;;;;;-0.35;74.93;100674.84;1761290;80;21064;-70
2021/01/10 08:46:49;;;;;;;26.07;17.50;;;;;;;-0.31;74.84;100669.10;1757462;80;22187;-70
2021/01/10 08:49:22;;;;;;;26.90;18.27;;;;;;;-0.29;74.79;100662.11;1775962;79;21374;-70
2021/01/10 08:51:50;;;;;;;31.42;21.02;;;;;;;-0.25;74.84;100669.38;1751653;80;21116;-69
2021/01/10 08:54:20;;;;;;;24.57;16.20;;;;;;;-0.23;74.64;100666.28;1764225;80;22630;-69
2021/01/10 08:56:55;;;;;;;25.27;17.45;;;;;;;-0.20;74.76;100655.80;1752081;80;21077;-69
2021/01/10 08:59:25;;;;;;;24.30;16.45;;;;;;;-0.15;74.87;100653.92;1742413;80;22065;-67
2021/01/10 09:01:53;;;;;;;25.48;17.57;;;;;;;-0.10;74.74;100663.25;1758451;80;21164;-73
2021/01/10 09:04:21;;;;;;;26.17;18.65;;;;;;;-0.09;74.57;100655.89;1704956;82;21120;-74
2021/01/10 09:07:13;;;;;;;24.40;17.82;;;;;;;-0.08;74.51;100648.95;1751537;82;21480;-69
2021/01/10 09:09:53;;;;;;;25.17;16.60;;;;;;;-0.03;74.59;100649.64;1762993;80;21061;-68
2021/01/10 09:12:38;;;;;;;29.32;21.52;;;;;;;-0.01;74.19;100643.48;1774903;80;22074;-68
2021/01/10 09:15:22;;;;;;;26.75;19.02;;;;;;;-0.02;74.21;100639.65;1768919;79;21132;-65
2021/01/10 09:18:14;;;;;;;28.02;18.85;;;;;;;0.04;74.30;100639.92;1752608;80;21069;-70
2021/01/10 09:21:01;;;;;;;27.55;18.27;;;;;;;0.06;74.15;100638.11;1757639;80;21147;-68
2021/01/10 09:23:29;;;;;;;26.23;19.07;;;;;;;0.08;73.85;100633.72;1750465;80;21572;-69
2021/01/10 09:25:56;;;;;;;31.20;21.37;;;;;;;0.11;73.98;100641.43;1746480;82;22158;-69
2021/01/10 09:28:25;;;;;;;29.72;20.72;;;;;;;0.13;73.99;100642.22;1746475;82;21180;-70
2021/01/10 09:30:57;;;;;;;22.45;16.17;;;;;;;0.14;73.72;100634.38;1746442;82;21815;-68
2021/01/10 09:33:30;;;;;;;24.82;16.62;;;;;;;0.20;73.87;100635.94;1747154;80;21129;-69
2021/01/10 09:36:00;;;;;;;26.73;18.87;;;;;;;0.21;73.58;100638.48;1748344;80;21113;-69
2021/01/10 09:38:29;;;;;;;23.45;16.25;;;;;;;0.23;73.60;100638.42;1747032;82;22062;-69
2021/01/10 09:41:10;;;;;;;24.15;16.77;;;;;;;0.27;73.60;100641.31;1747685;82;21065;-67
2021/01/10 09:43:48;;;;;;;30.95;20.62;;;;;;;0.27;73.39;100630.47;1747858;82;21408;-70
2021/01/10 09:46:35;;;;;;;25.77;17.62;;;;;;;0.28;73.49;100632.16;1747984;82;21305;-68
2021/01/10 09:49:10;;;;;;;38.05;22.62;;;;;;;0.31;73.40;100632.53;1747999;82;21575;-67
2021/01/10 09:51:53;;;;;;;26.62;18.17;;;;;;;0.31;72.98;100628.64;1747288;82;22979;-67
2021/01/10 09:54:25;;;;;;;22.10;14.97;;;;;;;0.31;73.19;100631.23;1769479;80;21271;-70
2021/01/10 09:56:54;;;;;;;27.60;17.65;;;;;;;0.33;73.00;100628.13;1779324;80;21053;-68
2021/01/10 09:59:47;;;;;;;25.05;16.97;;;;;;;0.32;72.97;100633.37;1779247;80;21072;-68
2021/01/10 10:02:24;;;;;;;26.75;17.77;;;;;;;0.32;72.92;100626.88;1779268;80;21143;-68
2021/01/10 10:04:59;;;;;;;28.12;18.00;;;;;;;0.33;72.75;100625.98;1779268;80;22046;-68
2021/01/10 10:07:41;;;;;;;28.83;19.92;;;;;;;0.34;72.94;100627.23;1771203;80;21562;-67
2021/01/10 10:10:28;;;;;;;27.35;17.57;;;;;;;0.37;72.86;100632.31;1766735;81;21081;-67
2021/01/10 10:13:07;;;;;;;47.00;25.80;;;;;;;0.42;72.81;100629.58;1790053;78;21105;-68
2021/01/10 10:15:43;;;;;;;23.05;15.98;;;;;;;0.43;72.58;100629.97;1786079;79;21121;-67
2021/01/10 10:21:04;;;;;;;26.60;17.95;;;;;;;0.48;72.47;100628.05;1873561;76;29404;-68
2021/01/10 10:23:31;;;;;;;24.50;17.85;;;;;;;0.42;72.28;100627.83;1841619;77;21570;-68
2021/01/10 10:25:59;;;;;;;30.40;20.92;;;;;;;0.42;72.47;100623.92;1841541;78;21952;-68
2021/01/10 10:28:27;;;;;;;27.37;18.62;;;;;;;0.46;72.58;100628.56;1809837;78;21103;-68
2021/01/10 10:30:54;;;;;;;25.77;17.45;;;;;;;0.48;72.47;100634.13;1808467;79;21048;-68
2021/01/10 10:33:23;;;;;;;25.27;18.42;;;;;;;0.51;72.51;100639.66;1808448;79;21059;-68
2021/01/10 10:35:50;;;;;;;30.50;21.55;;;;;;;0.55;72.54;100636.89;1808441;78;21052;-68
2021/01/10 10:38:18;;;;;;;23.12;16.65;;;;;;;0.59;72.53;100643.31;1808487;79;22064;-68
2021/01/10 10:40:46;;;;;;;24.85;16.57;;;;;;;0.61;72.36;100642.80;1808376;79;21163;-68
2021/01/10 10:43:13;;;;;;;22.77;16.45;;;;;;;0.60;72.10;100634.16;1809517;78;21063;-68
2021/01/10 10:45:41;;;;;;;26.27;18.00;;;;;;;0.60;72.08;100639.80;1808441;79;21072;-68
2021/01/10 10:48:10;;;;;;;21.77;16.15;;;;;;;0.59;72.00;100650.66;1808433;78;21120;-68
2021/01/10 10:50:38;;;;;;;27.85;19.70;;;;;;;0.60;72.01;100640.66;1808443;79;22098;-70
2021/01/10 10:53:08;;;;;;;28.85;19.98;;;;;;;0.63;71.98;100639.23;1808359;79;21546;-68
2021/01/10 10:55:36;;;;;;;25.08;17.05;;;;;;;0.64;71.87;100640.93;1808427;79;21151;-68
2021/01/10 10:58:08;;;;;;;27.75;19.32;;;;;;;0.64;71.90;100632.28;1817161;78;21630;-68
2021/01/10 11:00:40;;;;;;;25.97;17.40;;;;;;;0.65;71.81;100638.72;1832726;78;21119;-68
2021/01/10 11:03:09;;;;;;;27.52;19.30;;;;;;;0.67;71.76;100636.06;1815472;78;21892;-68
2021/01/10 11:05:37;;;;;;;25.02;16.23;;;;;;;0.68;71.85;100637.80;1841494;78;21119;-68
2021/01/10 11:08:06;;;;;;;28.70;20.80;;;;;;;0.69;71.62;100647.29;1841469;77;21144;-68
2021/01/10 11:10:34;;;;;;;28.87;21.10;;;;;;;0.69;71.70;100646.84;1841426;78;21040;-68
2021/01/10 11:13:02;;;;;;;27.35;18.32;;;;;;;0.72;71.76;100638.08;1841510;78;21055;-68
2021/01/10 11:15:30;;;;;;;28.45;18.87;;;;;;;0.76;71.69;100637.05;1817568;78;22064;-68
2021/01/10 11:17:58;;;;;;;25.00;17.57;;;;;;;0.79;71.55;100635.67;1807200;79;21134;-68
2021/01/10 11:20:26;;;;;;;26.60;18.92;;;;;;;0.78;71.46;100636.13;1811856;78;21163;-68
2021/01/10 11:22:57;;;;;;;27.17;18.73;;;;;;;0.79;71.55;100638.27;1813597;79;21126;-69
2021/01/10 11:25:25;;;;;;;25.88;19.05;;;;;;;0.79;71.49;100637.81;1814433;78;21039;-70
2021/01/10 11:27:53;;;;;;;24.12;16.90;;;;;;;0.81;71.59;100639.05;1814363;78;22109;-69
2021/01/10 11:30:22;;;;;;;24.65;16.60;;;;;;;0.84;71.52;100638.48;1814239;78;21146;-69
2021/01/10 11:32:50;;;;;;;23.42;16.55;;;;;;;0.84;71.46;100639.78;1813814;78;21542;-68
2021/01/10 11:35:19;;;;;;;28.45;20.02;;;;;;;0.82;71.47;100635.09;1812577;78;21118;-68